sensor_id;sensor_type;location;lat;lon;timestamp;temperature;humidity
36446;DHT22;22472;50.848;-1.216;2022-07-23T00:01:22;18.70;99.90
36446;DHT22;22472;50.848;-1.216;2022-07-23T00:03:49;18.60;99.90
36446;DHT22;22472;50.848;-1.216;2022-07-23T00:06:17;18.60;99.90
36446;DHT22;22472;50.848;-1.216;2022-07-23T00:08:44;18.60;99.90
36446;DHT22;22472;50.848;-1.216;2022-07-23T00:11:11;18.50;99.90
36446;DHT22;22472;50.848;-1.216;2022-07-23T00:13:38;18.50;99.90
36446;DHT22;22472;50.848;-1.216;2022-07-23T00:16:06;18.50;99.90
36446;DHT22;22472;50.848;-1.216;2022-07-23T00:18:34;18.40;99.90
36446;DHT22;22472;50.848;-1.216;2022-07-23T00:21:01;18.30;99.90
36446;DHT22;22472;50.848;-1.216;2022-07-23T00:23:29;18.30;99.90
36446;DHT22;22472;50.848;-1.216;2022-07-23T00:25:56;18.20;99.90
36446;DHT22;22472;50.848;-1.216;2022-07-23T00:28:24;18.20;99.90
36446;DHT22;22472;50.848;-1.216;2022-07-23T00:30:50;18.10;99.90
36446;DHT22;22472;50.848;-1.216;2022-07-23T00:33:18;18.10;99.90
36446;DHT22;22472;50.848;-1.216;2022-07-23T00:35:46;18.10;99.90
36446;DHT22;22472;50.848;-1.216;2022-07-23T00:38:13;18.10;99.90
36446;DHT22;22472;50.848;-1.216;2022-07-23T00:40:41;18.10;99.90
36446;DHT22;22472;50.848;-1.216;2022-07-23T00:43:08;18.10;99.90
36446;DHT22;22472;50.848;-1.216;2022-07-23T00:45:35;18.10;99.90
36446;DHT22;22472;50.848;-1.216;2022-07-23T00:48:02;18.10;99.90
36446;DHT22;22472;50.848;-1.216;2022-07-23T00:50:30;18.10;99.90
36446;DHT22;22472;50.848;-1.216;2022-07-23T00:52:58;18.10;99.90
36446;DHT22;22472;50.848;-1.216;2022-07-23T00:55:25;18.00;99.90
36446;DHT22;22472;50.848;-1.216;2022-07-23T00:57:53;18.00;99.90
36446;DHT22;22472;50.848;-1.216;2022-07-23T01:00:21;18.00;99.90
36446;DHT22;22472;50.848;-1.216;2022-07-23T01:02:48;18.00;99.90
36446;DHT22;22472;50.848;-1.216;2022-07-23T01:05:16;18.00;99.90
36446;DHT22;22472;50.848;-1.216;2022-07-23T01:07:47;18.00;99.90
36446;DHT22;22472;50.848;-1.216;2022-07-23T01:10:16;18.00;99.90
36446;DHT22;22472;50.848;-1.216;2022-07-23T01:12:58;18.00;99.90
36446;DHT22;22472;50.848;-1.216;2022-07-23T01:15:26;17.90;99.90
36446;DHT22;22472;50.848;-1.216;2022-07-23T01:17:53;17.90;99.90
36446;DHT22;22472;50.848;-1.216;2022-07-23T01:20:20;17.90;99.90
36446;DHT22;22472;50.848;-1.216;2022-07-23T01:22:49;17.90;99.90
36446;DHT22;22472;50.848;-1.216;2022-07-23T01:25:17;17.90;99.90
36446;DHT22;22472;50.848;-1.216;2022-07-23T01:27:44;17.80;99.90
36446;DHT22;22472;50.848;-1.216;2022-07-23T01:30:12;17.80;99.90
36446;DHT22;22472;50.848;-1.216;2022-07-23T01:32:39;17.80;99.90
36446;DHT22;22472;50.848;-1.216;2022-07-23T01:35:07;17.80;99.90
36446;DHT22;22472;50.848;-1.216;2022-07-23T01:37:35;17.80;99.90
36446;DHT22;22472;50.848;-1.216;2022-07-23T01:40:05;17.80;99.90
36446;DHT22;22472;50.848;-1.216;2022-07-23T01:42:32;17.70;99.90
36446;DHT22;22472;50.848;-1.216;2022-07-23T01:44:59;17.60;99.90
36446;DHT22;22472;50.848;-1.216;2022-07-23T01:47:27;17.50;99.90
36446;DHT22;22472;50.848;-1.216;2022-07-23T01:49:54;17.50;99.90
36446;DHT22;22472;50.848;-1.216;2022-07-23T01:52:21;17.40;99.90
36446;DHT22;22472;50.848;-1.216;2022-07-23T01:54:48;17.30;99.90
36446;DHT22;22472;50.848;-1.216;2022-07-23T01:57:16;17.20;99.90
36446;DHT22;22472;50.848;-1.216;2022-07-23T01:59:43;17.20;99.90
36446;DHT22;22472;50.848;-1.216;2022-07-23T02:02:10;17.10;99.90
36446;DHT22;22472;50.848;-1.216;2022-07-23T02:04:37;17.10;99.90
36446;DHT22;22472;50.848;-1.216;2022-07-23T02:07:05;17.00;99.90
36446;DHT22;22472;50.848;-1.216;2022-07-23T02:09:32;17.00;99.90
36446;DHT22;22472;50.848;-1.216;2022-07-23T02:11:59;16.90;99.90
36446;DHT22;22472;50.848;-1.216;2022-07-23T02:14:28;16.90;99.90
36446;DHT22;22472;50.848;-1.216;2022-07-23T02:16:55;16.80;99.90
36446;DHT22;22472;50.848;-1.216;2022-07-23T02:19:22;16.70;99.90
36446;DHT22;22472;50.848;-1.216;2022-07-23T02:21:49;16.70;99.90
36446;DHT22;22472;50.848;-1.216;2022-07-23T02:24:16;16.60;99.90
36446;DHT22;22472;50.848;-1.216;2022-07-23T02:26:43;16.60;99.90
36446;DHT22;22472;50.848;-1.216;2022-07-23T02:29:10;16.60;99.90
36446;DHT22;22472;50.848;-1.216;2022-07-23T02:31:39;16.60;99.90
36446;DHT22;22472;50.848;-1.216;2022-07-23T02:34:06;16.50;99.90
36446;DHT22;22472;50.848;-1.216;2022-07-23T02:36:37;16.50;99.90
36446;DHT22;22472;50.848;-1.216;2022-07-23T02:39:04;16.50;99.90
36446;DHT22;22472;50.848;-1.216;2022-07-23T02:41:31;16.50;99.90
36446;DHT22;22472;50.848;-1.216;2022-07-23T02:43:58;16.40;99.90
36446;DHT22;22472;50.848;-1.216;2022-07-23T02:46:25;16.40;99.90
36446;DHT22;22472;50.848;-1.216;2022-07-23T02:48:54;16.40;99.90
36446;DHT22;22472;50.848;-1.216;2022-07-23T02:51:21;16.30;99.90
36446;DHT22;22472;50.848;-1.216;2022-07-23T02:53:48;16.30;99.90
36446;DHT22;22472;50.848;-1.216;2022-07-23T02:56:15;16.30;99.90
36446;DHT22;22472;50.848;-1.216;2022-07-23T02:58:42;16.20;99.90
36446;DHT22;22472;50.848;-1.216;2022-07-23T03:01:09;16.20;99.90
36446;DHT22;22472;50.848;-1.216;2022-07-23T03:03:36;16.20;99.90
36446;DHT22;22472;50.848;-1.216;2022-07-23T03:06:05;16.10;99.90
36446;DHT22;22472;50.848;-1.216;2022-07-23T03:08:32;16.10;99.90
36446;DHT22;22472;50.848;-1.216;2022-07-23T03:10:59;16.10;99.90
36446;DHT22;22472;50.848;-1.216;2022-07-23T03:13:26;16.00;99.90
36446;DHT22;22472;50.848;-1.216;2022-07-23T03:15:55;16.00;99.90
36446;DHT22;22472;50.848;-1.216;2022-07-23T03:18:22;16.00;99.90
36446;DHT22;22472;50.848;-1.216;2022-07-23T03:20:49;16.00;99.90
36446;DHT22;22472;50.848;-1.216;2022-07-23T03:23:18;16.00;99.90
36446;DHT22;22472;50.848;-1.216;2022-07-23T03:25:45;16.00;99.90
36446;DHT22;22472;50.848;-1.216;2022-07-23T03:28:14;15.90;99.90
36446;DHT22;22472;50.848;-1.216;2022-07-23T03:30:41;15.90;99.90
36446;DHT22;22472;50.848;-1.216;2022-07-23T03:33:08;15.90;99.90
36446;DHT22;22472;50.848;-1.216;2022-07-23T03:35:35;15.80;99.90
36446;DHT22;22472;50.848;-1.216;2022-07-23T03:38:02;15.90;99.90
36446;DHT22;22472;50.848;-1.216;2022-07-23T03:40:31;15.80;99.90
36446;DHT22;22472;50.848;-1.216;2022-07-23T03:42:57;15.80;99.90
36446;DHT22;22472;50.848;-1.216;2022-07-23T03:45:25;15.80;99.90
36446;DHT22;22472;50.848;-1.216;2022-07-23T03:47:52;15.70;99.90
36446;DHT22;22472;50.848;-1.216;2022-07-23T03:50:19;15.80;99.90
36446;DHT22;22472;50.848;-1.216;2022-07-23T03:52:46;15.80;99.90
36446;DHT22;22472;50.848;-1.216;2022-07-23T03:55:14;15.80;99.90
36446;DHT22;22472;50.848;-1.216;2022-07-23T03:57:42;15.70;99.90
36446;DHT22;22472;50.848;-1.216;2022-07-23T04:00:11;15.70;99.90
36446;DHT22;22472;50.848;-1.216;2022-07-23T04:02:38;15.60;99.90
36446;DHT22;22472;50.848;-1.216;2022-07-23T04:05:07;15.70;99.90
36446;DHT22;22472;50.848;-1.216;2022-07-23T04:07:34;15.70;99.90
36446;DHT22;22472;50.848;-1.216;2022-07-23T04:10:01;15.70;99.90
36446;DHT22;22472;50.848;-1.216;2022-07-23T04:12:28;15.60;99.90
36446;DHT22;22472;50.848;-1.216;2022-07-23T04:14:57;15.60;99.90
36446;DHT22;22472;50.848;-1.216;2022-07-23T04:17:24;15.60;99.90
36446;DHT22;22472;50.848;-1.216;2022-07-23T04:19:51;15.50;99.90
36446;DHT22;22472;50.848;-1.216;2022-07-23T04:22:18;15.50;99.90
36446;DHT22;22472;50.848;-1.216;2022-07-23T04:24:45;15.40;99.90
36446;DHT22;22472;50.848;-1.216;2022-07-23T04:27:12;15.40;99.90
36446;DHT22;22472;50.848;-1.216;2022-07-23T04:29:39;15.40;99.90
36446;DHT22;22472;50.848;-1.216;2022-07-23T04:32:07;15.40;99.90
36446;DHT22;22472;50.848;-1.216;2022-07-23T04:34:35;15.40;99.90
36446;DHT22;22472;50.848;-1.216;2022-07-23T04:37:02;15.30;99.90
36446;DHT22;22472;50.848;-1.216;2022-07-23T04:39:29;15.30;99.90
36446;DHT22;22472;50.848;-1.216;2022-07-23T04:41:57;15.30;99.90
36446;DHT22;22472;50.848;-1.216;2022-07-23T04:44:24;15.30;99.90
36446;DHT22;22472;50.848;-1.216;2022-07-23T04:46:51;15.40;99.90
36446;DHT22;22472;50.848;-1.216;2022-07-23T04:49:20;15.40;99.90
36446;DHT22;22472;50.848;-1.216;2022-07-23T04:51:47;15.40;99.90
36446;DHT22;22472;50.848;-1.216;2022-07-23T04:54:14;15.40;99.90
36446;DHT22;22472;50.848;-1.216;2022-07-23T04:56:41;15.40;99.90
36446;DHT22;22472;50.848;-1.216;2022-07-23T04:59:08;15.50;99.90
36446;DHT22;22472;50.848;-1.216;2022-07-23T05:01:35;15.50;99.90
36446;DHT22;22472;50.848;-1.216;2022-07-23T05:04:02;15.50;99.90
36446;DHT22;22472;50.848;-1.216;2022-07-23T05:06:30;15.40;99.90
36446;DHT22;22472;50.848;-1.216;2022-07-23T05:08:57;15.50;99.90
36446;DHT22;22472;50.848;-1.216;2022-07-23T05:11:24;15.50;99.90
36446;DHT22;22472;50.848;-1.216;2022-07-23T05:13:51;15.60;99.90
36446;DHT22;22472;50.848;-1.216;2022-07-23T05:16:19;15.60;99.90
36446;DHT22;22472;50.848;-1.216;2022-07-23T05:18:46;15.60;99.90
36446;DHT22;22472;50.848;-1.216;2022-07-23T05:21:13;15.60;99.90
36446;DHT22;22472;50.848;-1.216;2022-07-23T05:23:41;15.60;99.90
36446;DHT22;22472;50.848;-1.216;2022-07-23T05:26:08;15.60;99.90
36446;DHT22;22472;50.848;-1.216;2022-07-23T05:28:38;15.70;99.90
36446;DHT22;22472;50.848;-1.216;2022-07-23T05:31:05;15.70;99.90
36446;DHT22;22472;50.848;-1.216;2022-07-23T05:33:32;15.80;99.90
36446;DHT22;22472;50.848;-1.216;2022-07-23T05:36:00;15.80;99.90
36446;DHT22;22472;50.848;-1.216;2022-07-23T05:38:28;15.90;99.90
36446;DHT22;22472;50.848;-1.216;2022-07-23T05:40:57;15.90;99.90
36446;DHT22;22472;50.848;-1.216;2022-07-23T05:43:24;16.00;99.90
36446;DHT22;22472;50.848;-1.216;2022-07-23T05:45:51;16.00;99.90
36446;DHT22;22472;50.848;-1.216;2022-07-23T05:48:19;16.00;99.90
36446;DHT22;22472;50.848;-1.216;2022-07-23T05:50:47;16.00;99.90
36446;DHT22;22472;50.848;-1.216;2022-07-23T05:53:14;16.10;99.90
36446;DHT22;22472;50.848;-1.216;2022-07-23T05:55:41;16.20;99.90
36446;DHT22;22472;50.848;-1.216;2022-07-23T05:58:10;16.30;99.90
36446;DHT22;22472;50.848;-1.216;2022-07-23T06:00:37;16.30;99.90
36446;DHT22;22472;50.848;-1.216;2022-07-23T06:03:04;16.30;99.90
36446;DHT22;22472;50.848;-1.216;2022-07-23T06:05:31;16.40;99.90
36446;DHT22;22472;50.848;-1.216;2022-07-23T06:07:58;16.50;99.90
36446;DHT22;22472;50.848;-1.216;2022-07-23T06:10:25;16.50;99.90
36446;DHT22;22472;50.848;-1.216;2022-07-23T06:12:52;16.50;99.90
36446;DHT22;22472;50.848;-1.216;2022-07-23T06:15:20;16.60;99.90
36446;DHT22;22472;50.848;-1.216;2022-07-23T06:17:48;16.70;99.90
36446;DHT22;22472;50.848;-1.216;2022-07-23T06:20:15;16.80;99.90
36446;DHT22;22472;50.848;-1.216;2022-07-23T06:22:42;16.80;99.90
36446;DHT22;22472;50.848;-1.216;2022-07-23T06:25:09;16.90;99.90
36446;DHT22;22472;50.848;-1.216;2022-07-23T06:27:36;16.90;99.90
36446;DHT22;22472;50.848;-1.216;2022-07-23T06:30:03;17.00;99.90
36446;DHT22;22472;50.848;-1.216;2022-07-23T06:32:32;17.10;99.90
36446;DHT22;22472;50.848;-1.216;2022-07-23T06:34:59;17.20;99.90
36446;DHT22;22472;50.848;-1.216;2022-07-23T06:37:26;17.30;99.90
36446;DHT22;22472;50.848;-1.216;2022-07-23T06:39:53;17.40;99.90
36446;DHT22;22472;50.848;-1.216;2022-07-23T06:42:21;17.60;99.90
36446;DHT22;22472;50.848;-1.216;2022-07-23T06:44:48;17.60;99.90
36446;DHT22;22472;50.848;-1.216;2022-07-23T06:47:15;17.70;99.90
36446;DHT22;22472;50.848;-1.216;2022-07-23T06:49:43;17.90;99.90
36446;DHT22;22472;50.848;-1.216;2022-07-23T06:52:11;18.00;99.90
36446;DHT22;22472;50.848;-1.216;2022-07-23T06:54:38;18.10;99.90
36446;DHT22;22472;50.848;-1.216;2022-07-23T06:57:05;18.30;99.90
36446;DHT22;22472;50.848;-1.216;2022-07-23T06:59:32;18.40;99.90
36446;DHT22;22472;50.848;-1.216;2022-07-23T07:02:02;18.50;99.90
36446;DHT22;22472;50.848;-1.216;2022-07-23T07:04:29;18.60;99.90
36446;DHT22;22472;50.848;-1.216;2022-07-23T07:06:57;18.70;99.90
36446;DHT22;22472;50.848;-1.216;2022-07-23T07:09:24;18.80;99.90
36446;DHT22;22472;50.848;-1.216;2022-07-23T07:11:51;18.80;99.90
36446;DHT22;22472;50.848;-1.216;2022-07-23T07:14:18;18.90;99.90
36446;DHT22;22472;50.848;-1.216;2022-07-23T07:16:46;19.00;99.90
36446;DHT22;22472;50.848;-1.216;2022-07-23T07:19:13;19.00;99.90
36446;DHT22;22472;50.848;-1.216;2022-07-23T07:21:40;19.00;99.90
36446;DHT22;22472;50.848;-1.216;2022-07-23T07:24:08;19.20;99.90
36446;DHT22;22472;50.848;-1.216;2022-07-23T07:26:35;19.30;99.90
36446;DHT22;22472;50.848;-1.216;2022-07-23T07:29:04;19.30;99.90
36446;DHT22;22472;50.848;-1.216;2022-07-23T07:31:31;19.50;99.90
36446;DHT22;22472;50.848;-1.216;2022-07-23T07:33:58;19.60;99.90
36446;DHT22;22472;50.848;-1.216;2022-07-23T07:36:25;19.80;99.90
36446;DHT22;22472;50.848;-1.216;2022-07-23T07:38:52;19.90;99.90
36446;DHT22;22472;50.848;-1.216;2022-07-23T07:41:20;20.10;99.90
36446;DHT22;22472;50.848;-1.216;2022-07-23T07:43:50;20.20;99.90
36446;DHT22;22472;50.848;-1.216;2022-07-23T07:46:17;20.30;99.90
36446;DHT22;22472;50.848;-1.216;2022-07-23T07:48:44;20.50;99.90
36446;DHT22;22472;50.848;-1.216;2022-07-23T07:51:11;20.60;99.90
36446;DHT22;22472;50.848;-1.216;2022-07-23T07:53:38;20.70;99.90
36446;DHT22;22472;50.848;-1.216;2022-07-23T07:56:05;21.00;99.90
36446;DHT22;22472;50.848;-1.216;2022-07-23T07:58:34;21.20;99.90
36446;DHT22;22472;50.848;-1.216;2022-07-23T08:01:01;21.50;99.90
36446;DHT22;22472;50.848;-1.216;2022-07-23T08:03:29;21.70;99.90
36446;DHT22;22472;50.848;-1.216;2022-07-23T08:05:56;21.80;99.90
36446;DHT22;22472;50.848;-1.216;2022-07-23T08:08:23;21.90;99.90
36446;DHT22;22472;50.848;-1.216;2022-07-23T08:10:50;22.00;99.90
36446;DHT22;22472;50.848;-1.216;2022-07-23T08:13:17;22.20;99.90
36446;DHT22;22472;50.848;-1.216;2022-07-23T08:15:46;22.40;99.90
36446;DHT22;22472;50.848;-1.216;2022-07-23T08:18:13;22.30;99.90
36446;DHT22;22472;50.848;-1.216;2022-07-23T08:20:40;22.60;99.90
36446;DHT22;22472;50.848;-1.216;2022-07-23T08:23:08;22.60;99.90
36446;DHT22;22472;50.848;-1.216;2022-07-23T08:25:37;22.70;99.90
36446;DHT22;22472;50.848;-1.216;2022-07-23T08:28:06;23.00;99.90
36446;DHT22;22472;50.848;-1.216;2022-07-23T08:30:34;23.40;99.90
36446;DHT22;22472;50.848;-1.216;2022-07-23T08:33:05;23.20;99.90
36446;DHT22;22472;50.848;-1.216;2022-07-23T08:35:35;23.30;99.90
36446;DHT22;22472;50.848;-1.216;2022-07-23T08:38:04;23.60;99.90
36446;DHT22;22472;50.848;-1.216;2022-07-23T08:40:33;23.80;99.90
36446;DHT22;22472;50.848;-1.216;2022-07-23T08:43:05;24.10;99.90
36446;DHT22;22472;50.848;-1.216;2022-07-23T08:45:36;24.50;99.90
36446;DHT22;22472;50.848;-1.216;2022-07-23T08:48:08;24.70;99.90
36446;DHT22;22472;50.848;-1.216;2022-07-23T08:50:36;24.70;99.90
36446;DHT22;22472;50.848;-1.216;2022-07-23T08:53:06;24.90;99.90
36446;DHT22;22472;50.848;-1.216;2022-07-23T08:55:34;25.10;99.90
36446;DHT22;22472;50.848;-1.216;2022-07-23T08:58:02;25.00;99.90
36446;DHT22;22472;50.848;-1.216;2022-07-23T09:00:29;25.30;99.90
36446;DHT22;22472;50.848;-1.216;2022-07-23T09:02:57;25.60;99.90
36446;DHT22;22472;50.848;-1.216;2022-07-23T09:05:25;25.80;99.90
36446;DHT22;22472;50.848;-1.216;2022-07-23T09:08:10;26.00;99.90
36446;DHT22;22472;50.848;-1.216;2022-07-23T09:10:52;26.10;99.90
36446;DHT22;22472;50.848;-1.216;2022-07-23T09:13:32;26.10;99.90
36446;DHT22;22472;50.848;-1.216;2022-07-23T09:16:01;26.30;99.90
36446;DHT22;22472;50.848;-1.216;2022-07-23T09:18:32;26.50;99.90
36446;DHT22;22472;50.848;-1.216;2022-07-23T09:21:20;26.60;99.90
36446;DHT22;22472;50.848;-1.216;2022-07-23T09:23:52;26.80;99.90
36446;DHT22;22472;50.848;-1.216;2022-07-23T09:26:25;26.50;99.90
36446;DHT22;22472;50.848;-1.216;2022-07-23T09:29:04;26.60;99.90
36446;DHT22;22472;50.848;-1.216;2022-07-23T09:31:42;27.10;99.90
36446;DHT22;22472;50.848;-1.216;2022-07-23T09:34:11;27.10;99.90
36446;DHT22;22472;50.848;-1.216;2022-07-23T09:36:40;27.10;99.90
36446;DHT22;22472;50.848;-1.216;2022-07-23T09:39:09;27.20;99.90
36446;DHT22;22472;50.848;-1.216;2022-07-23T09:41:39;27.50;99.90
36446;DHT22;22472;50.848;-1.216;2022-07-23T09:44:10;27.40;99.90
36446;DHT22;22472;50.848;-1.216;2022-07-23T09:46:38;27.60;99.90
36446;DHT22;22472;50.848;-1.216;2022-07-23T09:49:17;27.30;99.90
36446;DHT22;22472;50.848;-1.216;2022-07-23T09:51:48;27.50;99.90
36446;DHT22;22472;50.848;-1.216;2022-07-23T09:54:24;27.40;99.90
36446;DHT22;22472;50.848;-1.216;2022-07-23T09:56:52;27.50;99.90
36446;DHT22;22472;50.848;-1.216;2022-07-23T09:59:23;27.60;99.90
36446;DHT22;22472;50.848;-1.216;2022-07-23T10:01:53;27.60;99.90
36446;DHT22;22472;50.848;-1.216;2022-07-23T10:04:21;27.40;99.90
36446;DHT22;22472;50.848;-1.216;2022-07-23T10:06:53;27.70;99.90
36446;DHT22;22472;50.848;-1.216;2022-07-23T10:09:24;27.90;99.90
36446;DHT22;22472;50.848;-1.216;2022-07-23T10:11:52;28.00;99.90
36446;DHT22;22472;50.848;-1.216;2022-07-23T10:14:22;27.90;99.90
36446;DHT22;22472;50.848;-1.216;2022-07-23T10:16:48;27.70;99.90
36446;DHT22;22472;50.848;-1.216;2022-07-23T10:19:16;28.10;99.90
36446;DHT22;22472;50.848;-1.216;2022-07-23T10:21:46;28.20;99.90
36446;DHT22;22472;50.848;-1.216;2022-07-23T10:24:24;28.50;99.90
36446;DHT22;22472;50.848;-1.216;2022-07-23T10:27:04;28.70;99.90
36446;DHT22;22472;50.848;-1.216;2022-07-23T10:29:47;28.80;99.90
36446;DHT22;22472;50.848;-1.216;2022-07-23T10:32:24;28.70;99.90
36446;DHT22;22472;50.848;-1.216;2022-07-23T10:34:58;28.70;99.90
36446;DHT22;22472;50.848;-1.216;2022-07-23T10:37:30;29.10;99.90
36446;DHT22;22472;50.848;-1.216;2022-07-23T10:40:15;29.10;99.90
36446;DHT22;22472;50.848;-1.216;2022-07-23T10:42:44;29.00;99.90
36446;DHT22;22472;50.848;-1.216;2022-07-23T10:45:31;29.00;99.90
36446;DHT22;22472;50.848;-1.216;2022-07-23T10:48:13;29.00;99.90
36446;DHT22;22472;50.848;-1.216;2022-07-23T10:50:42;29.20;99.90
36446;DHT22;22472;50.848;-1.216;2022-07-23T10:53:18;29.00;99.90
36446;DHT22;22472;50.848;-1.216;2022-07-23T10:55:48;29.40;99.90
36446;DHT22;22472;50.848;-1.216;2022-07-23T10:58:20;29.20;99.90
36446;DHT22;22472;50.848;-1.216;2022-07-23T11:00:48;29.40;99.90
36446;DHT22;22472;50.848;-1.216;2022-07-23T11:03:31;29.10;99.90
36446;DHT22;22472;50.848;-1.216;2022-07-23T11:05:59;29.40;99.90
36446;DHT22;22472;50.848;-1.216;2022-07-23T11:08:26;29.70;99.90
36446;DHT22;22472;50.848;-1.216;2022-07-23T11:11:08;29.60;99.90
36446;DHT22;22472;50.848;-1.216;2022-07-23T11:13:46;29.80;99.90
36446;DHT22;22472;50.848;-1.216;2022-07-23T11:16:19;29.70;99.90
36446;DHT22;22472;50.848;-1.216;2022-07-23T11:18:57;29.50;99.90
36446;DHT22;22472;50.848;-1.216;2022-07-23T11:21:47;29.60;99.90
36446;DHT22;22472;50.848;-1.216;2022-07-23T11:24:19;29.70;99.90
36446;DHT22;22472;50.848;-1.216;2022-07-23T11:26:51;29.90;99.90
36446;DHT22;22472;50.848;-1.216;2022-07-23T11:29:38;29.60;99.90
36446;DHT22;22472;50.848;-1.216;2022-07-23T11:32:07;29.50;99.90
36446;DHT22;22472;50.848;-1.216;2022-07-23T11:34:35;29.10;99.90
36446;DHT22;22472;50.848;-1.216;2022-07-23T11:37:04;29.20;99.90
36446;DHT22;22472;50.848;-1.216;2022-07-23T11:39:32;28.90;99.90
36446;DHT22;22472;50.848;-1.216;2022-07-23T11:42:03;28.90;99.90
36446;DHT22;22472;50.848;-1.216;2022-07-23T11:44:32;28.80;99.90
36446;DHT22;22472;50.848;-1.216;2022-07-23T11:47:03;28.80;99.90
36446;DHT22;22472;50.848;-1.216;2022-07-23T11:49:30;28.90;99.90
36446;DHT22;22472;50.848;-1.216;2022-07-23T11:52:04;28.90;99.90
36446;DHT22;22472;50.848;-1.216;2022-07-23T11:54:33;28.70;99.90
36446;DHT22;22472;50.848;-1.216;2022-07-23T11:57:02;28.90;99.90
36446;DHT22;22472;50.848;-1.216;2022-07-23T11:59:32;28.60;99.90
36446;DHT22;22472;50.848;-1.216;2022-07-23T12:01:59;29.10;99.90
36446;DHT22;22472;50.848;-1.216;2022-07-23T12:04:37;29.10;99.90
36446;DHT22;22472;50.848;-1.216;2022-07-23T12:07:23;29.30;99.90
36446;DHT22;22472;50.848;-1.216;2022-07-23T12:09:50;29.30;99.90
36446;DHT22;22472;50.848;-1.216;2022-07-23T12:12:19;29.60;99.90
36446;DHT22;22472;50.848;-1.216;2022-07-23T12:14:48;30.10;99.90
36446;DHT22;22472;50.848;-1.216;2022-07-23T12:17:16;29.80;99.90
36446;DHT22;22472;50.848;-1.216;2022-07-23T12:19:43;29.30;99.90
36446;DHT22;22472;50.848;-1.216;2022-07-23T12:22:11;29.00;99.90
36446;DHT22;22472;50.848;-1.216;2022-07-23T12:25:00;28.60;99.90
36446;DHT22;22472;50.848;-1.216;2022-07-23T12:27:30;28.20;99.90
36446;DHT22;22472;50.848;-1.216;2022-07-23T12:29:59;28.10;99.90
36446;DHT22;22472;50.848;-1.216;2022-07-23T12:32:27;28.00;99.90
36446;DHT22;22472;50.848;-1.216;2022-07-23T12:35:05;27.80;99.90
36446;DHT22;22472;50.848;-1.216;2022-07-23T12:37:34;27.80;99.90
36446;DHT22;22472;50.848;-1.216;2022-07-23T12:40:23;28.10;99.90
36446;DHT22;22472;50.848;-1.216;2022-07-23T12:42:53;28.40;99.90
36446;DHT22;22472;50.848;-1.216;2022-07-23T12:45:21;28.80;99.90
36446;DHT22;22472;50.848;-1.216;2022-07-23T12:48:00;29.00;99.90
36446;DHT22;22472;50.848;-1.216;2022-07-23T12:50:40;29.30;99.90
36446;DHT22;22472;50.848;-1.216;2022-07-23T12:53:11;29.80;99.90
36446;DHT22;22472;50.848;-1.216;2022-07-23T12:55:40;29.90;99.90
36446;DHT22;22472;50.848;-1.216;2022-07-23T12:58:12;29.90;99.90
36446;DHT22;22472;50.848;-1.216;2022-07-23T13:00:57;29.60;99.90
36446;DHT22;22472;50.848;-1.216;2022-07-23T13:03:26;29.00;99.90
36446;DHT22;22472;50.848;-1.216;2022-07-23T13:05:53;29.00;99.90
36446;DHT22;22472;50.848;-1.216;2022-07-23T13:08:22;28.80;99.90
36446;DHT22;22472;50.848;-1.216;2022-07-23T13:10:49;28.50;99.90
36446;DHT22;22472;50.848;-1.216;2022-07-23T13:13:20;28.70;99.90
36446;DHT22;22472;50.848;-1.216;2022-07-23T13:15:48;28.30;99.90
36446;DHT22;22472;50.848;-1.216;2022-07-23T13:18:15;28.40;99.90
36446;DHT22;22472;50.848;-1.216;2022-07-23T13:20:43;27.90;99.90
36446;DHT22;22472;50.848;-1.216;2022-07-23T13:23:10;27.70;99.90
36446;DHT22;22472;50.848;-1.216;2022-07-23T13:25:37;27.60;99.90
36446;DHT22;22472;50.848;-1.216;2022-07-23T13:28:04;27.90;99.90
36446;DHT22;22472;50.848;-1.216;2022-07-23T13:30:33;28.10;99.90
36446;DHT22;22472;50.848;-1.216;2022-07-23T13:33:01;27.90;99.90
36446;DHT22;22472;50.848;-1.216;2022-07-23T13:35:28;27.70;99.90
36446;DHT22;22472;50.848;-1.216;2022-07-23T13:37:55;27.70;99.90
36446;DHT22;22472;50.848;-1.216;2022-07-23T13:40:22;27.60;99.90
36446;DHT22;22472;50.848;-1.216;2022-07-23T13:42:49;27.90;99.90
36446;DHT22;22472;50.848;-1.216;2022-07-23T13:45:16;28.60;99.90
36446;DHT22;22472;50.848;-1.216;2022-07-23T13:47:45;28.90;99.90
36446;DHT22;22472;50.848;-1.216;2022-07-23T13:50:12;28.50;99.90
36446;DHT22;22472;50.848;-1.216;2022-07-23T13:52:41;28.20;99.90
36446;DHT22;22472;50.848;-1.216;2022-07-23T13:55:09;28.70;99.90
36446;DHT22;22472;50.848;-1.216;2022-07-23T13:57:36;28.10;99.90
36446;DHT22;22472;50.848;-1.216;2022-07-23T14:00:06;28.00;99.90
36446;DHT22;22472;50.848;-1.216;2022-07-23T14:02:35;27.40;99.90
36446;DHT22;22472;50.848;-1.216;2022-07-23T14:05:04;27.30;99.90
36446;DHT22;22472;50.848;-1.216;2022-07-23T14:07:32;27.00;99.90
36446;DHT22;22472;50.848;-1.216;2022-07-23T14:09:59;27.00;99.90
36446;DHT22;22472;50.848;-1.216;2022-07-23T14:12:26;26.70;99.90
36446;DHT22;22472;50.848;-1.216;2022-07-23T14:14:53;26.70;99.90
36446;DHT22;22472;50.848;-1.216;2022-07-23T14:17:20;26.50;99.90
36446;DHT22;22472;50.848;-1.216;2022-07-23T14:19:47;26.40;99.90
36446;DHT22;22472;50.848;-1.216;2022-07-23T14:22:16;26.50;99.90
36446;DHT22;22472;50.848;-1.216;2022-07-23T14:24:43;26.60;99.90
36446;DHT22;22472;50.848;-1.216;2022-07-23T14:27:10;26.50;99.90
36446;DHT22;22472;50.848;-1.216;2022-07-23T14:29:37;26.40;99.90
36446;DHT22;22472;50.848;-1.216;2022-07-23T14:32:07;26.70;99.90
36446;DHT22;22472;50.848;-1.216;2022-07-23T14:34:34;26.30;99.90
36446;DHT22;22472;50.848;-1.216;2022-07-23T14:37:04;26.00;99.90
36446;DHT22;22472;50.848;-1.216;2022-07-23T14:39:33;26.20;99.90
36446;DHT22;22472;50.848;-1.216;2022-07-23T14:42:00;26.40;99.90
36446;DHT22;22472;50.848;-1.216;2022-07-23T14:44:27;26.80;99.90
36446;DHT22;22472;50.848;-1.216;2022-07-23T14:46:54;26.90;99.90
36446;DHT22;22472;50.848;-1.216;2022-07-23T14:49:21;26.60;99.90
36446;DHT22;22472;50.848;-1.216;2022-07-23T14:51:48;26.50;99.90
36446;DHT22;22472;50.848;-1.216;2022-07-23T14:54:16;26.40;99.90
36446;DHT22;22472;50.848;-1.216;2022-07-23T14:56:44;26.40;99.90
36446;DHT22;22472;50.848;-1.216;2022-07-23T14:59:11;26.50;99.90
36446;DHT22;22472;50.848;-1.216;2022-07-23T15:01:39;27.00;99.90
36446;DHT22;22472;50.848;-1.216;2022-07-23T15:04:06;27.20;99.90
36446;DHT22;22472;50.848;-1.216;2022-07-23T15:06:33;27.40;99.90
36446;DHT22;22472;50.848;-1.216;2022-07-23T15:09:00;27.20;99.90
36446;DHT22;22472;50.848;-1.216;2022-07-23T15:11:28;27.10;99.90
36446;DHT22;22472;50.848;-1.216;2022-07-23T15:13:58;27.30;99.90
36446;DHT22;22472;50.848;-1.216;2022-07-23T15:16:26;26.90;99.90
36446;DHT22;22472;50.848;-1.216;2022-07-23T15:18:53;26.60;99.90
36446;DHT22;22472;50.848;-1.216;2022-07-23T15:21:20;26.90;99.90
36446;DHT22;22472;50.848;-1.216;2022-07-23T15:23:47;26.70;99.90
36446;DHT22;22472;50.848;-1.216;2022-07-23T15:26:14;26.10;99.90